首页
METAR-TAF:

METAR-TAF

机场 :

塔里哈, 玻利维亚

纬度: 21-33S, 经度: 064-42W, 海拔: 1854米

当前天气观测

该预报发布于54分钟前的01:00 UTC
静风
温度 20°C
湿度 60%
气压 1021 hPa
能见度10公里或以上
散云层高于3300英尺
多云层高于20000英尺

METAR: SLTJ 230100Z 00000KT 9999 SCT033 BKN200 20/12 Q1021

时间: 21:54 (01:54 UTC)

预报

该预报发布于3小时和9分钟前的22:45 UTC
预报有效从23日的 00点(UTC)到 23日的 24点(UTC)
风速节,风向
能见度10公里或以上
散云层高于3000英尺
散云层高于7000英尺
短暂存在
从 23日的 06点(UTC)到 23日的 08点(UTC)
能見度: 6000
散云层高于1300英尺
散云层高于2500英尺
阴天层高于7000英尺
成为
从 23日的 14点(UTC)到 23日的 16点(UTC)
风速10节,风向东南
散云层高于3000英尺
多云层高于7000英尺

TAF: SLTJ 222245Z 2300/2324 00000KT 9999 SCT030 SCT070 TX27/2319Z TN15/2311Z TEMPO 2306/2308 6000 RA SCT013 SCT025 OVC070 BECMG 2314/2316 14010KT SCT030 BKN070

超过4000个机场的气象观测和天气预报(METAR&TAF报告)。

可查询的气象台以黄色和红色小点在地图上表示。

将鼠标移到小点上方,可查看气象台名称。

然后点击查看天气观测和预报。

如需切换地图:点击带黑十字的绿色按钮放大地图;点击带横线的绿色按钮缩小地图;或者点击绿色箭头查看邻近地区的地图。


METAR-TAF: